Time;durP1;ratioP1;P1;durP2;ratioP2;P2;SDS_P1;SDS_P2;PMS_P1;PMS_P2;Temp;Humidity;BMP_temperature;BMP_pressure;BME280_temperature;BME280_humidity;BME280_pressure;Samples;Min_cycle;Max_cycle;Signal;HPM_P1;HPM_P2
2021/01/28 00:01:26;;;;;;;15.73;7.63;;;;;;;;;;4974813;28;20046;-67
2021/01/28 00:04:11;;;;;;;16.65;7.00;;;;;;;;;;4975730;28;20509;-65
2021/01/28 00:06:57;;;;;;;19.52;7.93;;;;;;;;;;4975553;28;20047;-67
2021/01/28 00:09:42;;;;;;;13.55;7.28;;;;;;;;;;4974619;28;20047;-66
2021/01/28 00:12:28;;;;;;;17.20;7.10;;;;;;;;;;4975254;28;20043;-66
2021/01/28 00:15:14;;;;;;;17.55;8.50;;;;;;;;;;4975210;28;20049;-66
2021/01/28 00:17:59;;;;;;;18.48;7.60;;;;;;;;;;4975278;28;20050;-67
2021/01/28 00:20:46;;;;;;;16.00;7.78;;;;;;;;;;4975120;28;20413;-66
2021/01/28 00:23:31;;;;;;;21.17;8.52;;;;;;;;;;4975447;28;20047;-66
2021/01/28 00:26:18;;;;;;;16.65;7.78;;;;;;;;;;4975254;28;20051;-66
2021/01/28 00:29:03;;;;;;;14.52;7.75;;;;;;;;;;4974667;28;20050;-67
2021/01/28 00:31:49;;;;;;;18.83;7.88;;;;;;;;;;4975140;28;20049;-66
2021/01/28 00:34:34;;;;;;;17.95;7.85;;;;;;;;;;4973897;28;20043;-67
2021/01/28 00:37:20;;;;;;;14.35;7.60;;;;;;;;;;4974103;28;20054;-68
2021/01/28 00:40:05;;;;;;;13.65;7.10;;;;;;;;;;4974593;28;20050;-66
2021/01/28 00:42:51;;;;;;;20.10;7.60;;;;;;;;;;4974531;28;20047;-67
2021/01/28 00:45:37;;;;;;;16.25;8.15;;;;;;;;;;5033111;23;20132;-65
2021/01/28 00:48:24;;;;;;;13.75;8.15;;;;;;;;;;4994072;28;20042;-66
2021/01/28 00:51:09;;;;;;;15.00;7.20;;;;;;;;;;4992495;28;20177;-66
2021/01/28 00:53:54;;;;;;;17.63;6.95;;;;;;;;;;4994022;28;20048;-66
2021/01/28 00:56:40;;;;;;;17.35;7.55;;;;;;;;;;4979590;28;20155;-65
2021/01/28 00:59:25;;;;;;;19.15;7.38;;;;;;;;;;4992992;28;20477;-65
2021/01/28 01:02:10;;;;;;;14.60;7.28;;;;;;;;;;4976478;28;20505;-65
2021/01/28 01:04:59;;;;;;;12.60;6.82;;;;;;;;;;4974337;28;20053;-65
2021/01/28 01:07:45;;;;;;;15.95;7.30;;;;;;;;;;4974245;28;20548;-65
2021/01/28 01:10:43;;;;;;;15.35;7.10;;;;;;;;;;4960649;28;20565;-65
2021/01/28 01:13:30;;;;;;;14.35;7.28;;;;;;;;;;4954871;29;20486;-65
2021/01/28 01:16:27;;;;;;;16.75;8.40;;;;;;;;;;4953695;29;20039;-65
2021/01/28 01:19:26;;;;;;;16.00;7.97;;;;;;;;;;4953811;29;20397;-65
2021/01/28 01:22:27;;;;;;;19.63;8.38;;;;;;;;;;4963346;28;20047;-66
2021/01/28 01:25:13;;;;;;;30.60;9.73;;;;;;;;;;4953895;28;20051;-66
2021/01/28 01:27:59;;;;;;;19.67;8.25;;;;;;;;;;4953603;29;20130;-66
2021/01/28 01:31:08;;;;;;;20.88;8.57;;;;;;;;;;4953769;29;20051;-66
2021/01/28 01:33:54;;;;;;;23.55;8.55;;;;;;;;;;4953618;29;20391;-66
2021/01/28 01:36:43;;;;;;;22.08;8.68;;;;;;;;;;4958077;28;20047;-66
2021/01/28 01:39:29;;;;;;;19.48;8.85;;;;;;;;;;4967152;28;20055;-66
2021/01/28 01:42:14;;;;;;;20.63;9.43;;;;;;;;;;4980117;28;20106;-66
2021/01/28 01:45:03;;;;;;;28.90;8.98;;;;;;;;;;4960203;28;20038;-66
2021/01/28 01:47:54;;;;;;;149.90;15.73;;;;;;;;;;4967332;28;20051;-66
2021/01/28 01:50:59;;;;;;;143.18;15.73;;;;;;;;;;4967132;28;20513;-66
2021/01/28 01:54:05;;;;;;;77.53;10.50;;;;;;;;;;4954423;29;20402;-66
2021/01/28 01:56:58;;;;;;;66.65;10.98;;;;;;;;;;4958852;28;20050;-66
2021/01/28 01:59:59;;;;;;;89.60;11.23;;;;;;;;;;4959850;28;20053;-66
2021/01/28 02:03:08;;;;;;;269.40;20.55;;;;;;;;;;4973838;28;20046;-66
2021/01/28 02:06:17;;;;;;;264.92;17.25;;;;;;;;;;4973517;28;20054;-66
2021/01/28 02:09:35;;;;;;;377.85;25.25;;;;;;;;;;4972612;28;20101;-66
2021/01/28 02:12:28;;;;;;;108.20;12.63;;;;;;;;;;4972507;28;20062;-66
2021/01/28 02:15:22;;;;;;;101.35;14.52;;;;;;;;;;4972534;28;20047;-65
2021/01/28 02:18:08;;;;;;;45.83;13.02;;;;;;;;;;4958961;28;20178;-66
2021/01/28 02:21:05;;;;;;;53.70;15.25;;;;;;;;;;4960017;28;20042;-65
2021/01/28 02:23:54;;;;;;;44.80;12.30;;;;;;;;;;4972683;28;20070;-66
2021/01/28 02:26:46;;;;;;;18.80;8.35;;;;;;;;;;4967590;28;20043;-66
2021/01/28 02:29:50;;;;;;;40.88;10.63;;;;;;;;;;4964197;28;20098;-66
2021/01/28 02:32:36;;;;;;;50.47;10.38;;;;;;;;;;4967231;28;20043;-67
2021/01/28 02:35:50;;;;;;;21.88;7.78;;;;;;;;;;4938734;28;20133;-67
2021/01/28 02:38:36;;;;;;;39.25;10.18;;;;;;;;;;4952885;29;20565;-67
2021/01/28 02:41:26;;;;;;;72.22;13.93;;;;;;;;;;4952994;29;20409;-65
2021/01/28 02:44:20;;;;;;;123.45;13.63;;;;;;;;;;4952667;29;20043;-66
2021/01/28 02:47:17;;;;;;;154.68;16.20;;;;;;;;;;4961427;28;20054;-66
2021/01/28 02:50:36;;;;;;;105.07;13.02;;;;;;;;;;4972965;28;20043;-66
2021/01/28 02:53:21;;;;;;;86.63;14.30;;;;;;;;;;5005493;28;20053;-66
2021/01/28 02:56:09;;;;;;;334.98;33.38;;;;;;;;;;5009130;28;20054;-66
2021/01/28 02:58:54;;;;;;;275.85;23.98;;;;;;;;;;4993772;28;20046;-66
2021/01/28 03:01:40;;;;;;;341.88;27.27;;;;;;;;;;4995212;28;20046;-67
2021/01/28 03:04:26;;;;;;;43.85;9.50;;;;;;;;;;4996128;28;20469;-66
2021/01/28 03:07:23;;;;;;;115.38;15.82;;;;;;;;;;4975315;28;20055;-66
2021/01/28 03:10:09;;;;;;;94.10;13.00;;;;;;;;;;4969929;28;20473;-66
2021/01/28 03:13:19;;;;;;;308.38;23.20;;;;;;;;;;4969876;28;20055;-66
2021/01/28 03:16:15;;;;;;;102.85;10.07;;;;;;;;;;4964567;28;20070;-67
2021/01/28 03:19:06;;;;;;;210.48;19.33;;;;;;;;;;4995072;28;20053;-67
2021/01/28 03:21:51;;;;;;;173.40;15.23;;;;;;;;;;4995008;28;20046;-66
2021/01/28 03:24:44;;;;;;;36.45;7.78;;;;;;;;;;4995693;28;20046;-66
2021/01/28 03:27:34;;;;;;;41.75;8.32;;;;;;;;;;4984964;28;20047;-66
2021/01/28 03:30:21;;;;;;;105.57;11.90;;;;;;;;;;4974096;28;20043;-66
2021/01/28 03:33:07;;;;;;;63.03;8.95;;;;;;;;;;4976260;28;20138;-66
2021/01/28 03:35:52;;;;;;;158.90;15.30;;;;;;;;;;4975211;28;20404;-66
2021/01/28 03:38:39;;;;;;;154.25;15.35;;;;;;;;;;4975825;28;20110;-66
2021/01/28 03:41:26;;;;;;;247.60;18.90;;;;;;;;;;4973492;28;20567;-66
2021/01/28 03:44:11;;;;;;;183.23;17.52;;;;;;;;;;4974984;28;20150;-66
2021/01/28 03:47:18;;;;;;;109.30;12.48;;;;;;;;;;4965697;28;20575;-66
2021/01/28 03:50:28;;;;;;;149.98;17.67;;;;;;;;;;4993613;28;20057;-66
2021/01/28 03:53:42;;;;;;;155.38;18.30;;;;;;;;;;4994154;28;20078;-66
2021/01/28 03:56:39;;;;;;;145.38;14.52;;;;;;;;;;4994188;28;20050;-66
2021/01/28 03:59:24;;;;;;;187.90;21.23;;;;;;;;;;4977348;28;20057;-66
2021/01/28 04:02:32;;;;;;;238.48;22.50;;;;;;;;;;4975688;28;20054;-66
2021/01/28 04:05:43;;;;;;;221.05;21.55;;;;;;;;;;4974764;28;20042;-66
2021/01/28 04:08:58;;;;;;;244.32;22.77;;;;;;;;;;4984648;28;20046;-66
2021/01/28 04:12:04;;;;;;;80.97;14.15;;;;;;;;;;4994749;28;20497;-66
2021/01/28 04:15:15;;;;;;;189.77;18.55;;;;;;;;;;4993975;28;20051;-66
2021/01/28 04:18:06;;;;;;;159.07;16.85;;;;;;;;;;4980411;28;20054;-66
2021/01/28 04:20:57;;;;;;;184.90;19.63;;;;;;;;;;4975237;28;20142;-66
2021/01/28 04:23:43;;;;;;;129.07;15.48;;;;;;;;;;4974340;28;20079;-66
2021/01/28 04:26:36;;;;;;;97.32;13.23;;;;;;;;;;4974363;28;20138;-66
2021/01/28 04:29:22;;;;;;;109.40;15.48;;;;;;;;;;4981717;28;20160;-66
2021/01/28 04:32:24;;;;;;;186.77;20.20;;;;;;;;;;4993464;28;20042;-66
2021/01/28 04:35:44;;;;;;;223.93;21.55;;;;;;;;;;4994534;28;20053;-66
2021/01/28 04:38:29;;;;;;;105.65;14.00;;;;;;;;;;4993605;28;20050;-66
2021/01/28 04:41:24;;;;;;;133.30;14.55;;;;;;;;;;4954716;29;20142;-66
2021/01/28 04:44:13;;;;;;;79.93;14.02;;;;;;;;;;4968255;28;20059;-66
2021/01/28 04:47:13;;;;;;;204.90;19.52;;;;;;;;;;4988347;28;20047;-66
2021/01/28 04:49:59;;;;;;;175.25;17.83;;;;;;;;;;4974880;28;20051;-66
2021/01/28 04:52:47;;;;;;;261.08;24.10;;;;;;;;;;4974732;28;20425;-66
2021/01/28 04:56:03;;;;;;;102.55;14.07;;;;;;;;;;4975580;28;20066;-66
2021/01/28 04:59:08;;;;;;;179.45;18.42;;;;;;;;;;4974750;28;20061;-66
2021/01/28 05:01:53;;;;;;;113.97;15.15;;;;;;;;;;4968912;28;20043;-66
2021/01/28 05:04:58;;;;;;;233.90;21.95;;;;;;;;;;4965522;28;20048;-65
2021/01/28 05:07:53;;;;;;;133.85;14.40;;;;;;;;;;4962282;28;20133;-67
2021/01/28 05:10:58;;;;;;;102.38;13.65;;;;;;;;;;4974491;28;20042;-65
2021/01/28 05:14:15;;;;;;;115.43;14.07;;;;;;;;;;4974338;28;20510;-66
2021/01/28 05:17:20;;;;;;;58.50;10.50;;;;;;;;;;4954800;28;20051;-66
2021/01/28 05:20:41;;;;;;;38.22;10.15;;;;;;;;;;4954878;29;20047;-66
2021/01/28 05:23:42;;;;;;;218.43;22.05;;;;;;;;;;4955031;29;20087;-66
2021/01/28 05:26:28;;;;;;;142.43;16.98;;;;;;;;;;4976238;28;20047;-66
2021/01/28 05:29:27;;;;;;;143.95;16.55;;;;;;;;;;4975336;28;20046;-66
2021/01/28 05:32:40;;;;;;;184.70;19.30;;;;;;;;;;4972832;28;20051;-66
2021/01/28 05:35:46;;;;;;;187.00;18.15;;;;;;;;;;4973652;28;20039;-66
2021/01/28 05:38:43;;;;;;;171.50;17.88;;;;;;;;;;4972979;28;20490;-66
2021/01/28 05:41:43;;;;;;;145.05;16.30;;;;;;;;;;4972892;28;20043;-66
2021/01/28 05:44:29;;;;;;;154.20;18.02;;;;;;;;;;4972855;28;20047;-66
2021/01/28 05:47:19;;;;;;;132.48;17.90;;;;;;;;;;4968033;28;20405;-66
2021/01/28 05:50:25;;;;;;;145.15;19.02;;;;;;;;;;4967002;28;20059;-66
2021/01/28 05:53:14;;;;;;;138.38;18.40;;;;;;;;;;4954454;29;20043;-67
2021/01/28 05:56:01;;;;;;;110.20;17.05;;;;;;;;;;4969201;28;20123;-66
2021/01/28 05:58:51;;;;;;;127.03;18.75;;;;;;;;;;4992201;28;20057;-66
2021/01/28 06:01:45;;;;;;;119.60;18.02;;;;;;;;;;4965885;28;20043;-66
2021/01/28 06:05:00;;;;;;;139.80;17.90;;;;;;;;;;4972563;28;20047;-67
2021/01/28 06:08:01;;;;;;;156.13;19.33;;;;;;;;;;4967832;28;20043;-66
2021/01/28 06:11:00;;;;;;;97.32;15.57;;;;;;;;;;4953007;29;20053;-66
2021/01/28 06:14:00;;;;;;;113.10;16.73;;;;;;;;;;4966717;28;20059;-66
2021/01/28 06:17:23;;;;;;;108.05;18.15;;;;;;;;;;4964928;28;20047;-66
2021/01/28 06:20:46;;;;;;;174.75;21.73;;;;;;;;;;4964410;28;20047;-66
2021/01/28 06:23:51;;;;;;;142.77;19.73;;;;;;;;;;4954223;29;20398;-66
2021/01/28 06:26:42;;;;;;;132.32;16.83;;;;;;;;;;4967375;28;20580;-66
2021/01/28 06:29:58;;;;;;;137.50;20.33;;;;;;;;;;4966635;28;20050;-66
2021/01/28 06:32:43;;;;;;;145.20;20.30;;;;;;;;;;4956818;28;20043;-66
2021/01/28 06:35:59;;;;;;;137.75;17.40;;;;;;;;;;4954843;28;20047;-66
2021/01/28 06:39:12;;;;;;;112.88;18.75;;;;;;;;;;4953853;29;20126;-66
2021/01/28 06:42:25;;;;;;;147.63;20.83;;;;;;;;;;4953651;29;20517;-66
2021/01/28 06:45:21;;;;;;;110.07;17.73;;;;;;;;;;4991687;28;20188;-66
2021/01/28 06:48:25;;;;;;;74.25;14.20;;;;;;;;;;4991263;28;20497;-66
2021/01/28 06:51:27;;;;;;;109.40;17.13;;;;;;;;;;4991557;28;20047;-65
2021/01/28 06:54:43;;;;;;;118.43;17.63;;;;;;;;;;4966803;28;20149;-66
2021/01/28 06:58:04;;;;;;;48.47;13.75;;;;;;;;;;4951314;29;20490;-66
2021/01/28 07:01:06;;;;;;;44.53;14.48;;;;;;;;;;4973083;28;20051;-66
2021/01/28 07:04:07;;;;;;;48.03;14.50;;;;;;;;;;4958744;28;20047;-66
2021/01/28 07:07:22;;;;;;;44.35;13.93;;;;;;;;;;4972720;28;20054;-66
2021/01/28 07:10:43;;;;;;;39.55;13.75;;;;;;;;;;4973170;28;20072;-66
2021/01/28 07:14:00;;;;;;;38.20;13.13;;;;;;;;;;4965018;28;20049;-66
2021/01/28 07:17:05;;;;;;;43.40;14.88;;;;;;;;;;4989895;28;20051;-66
2021/01/28 07:19:52;;;;;;;41.90;13.90;;;;;;;;;;4991159;28;20465;-66
2021/01/28 07:22:39;;;;;;;44.78;15.35;;;;;;;;;;4962385;28;20042;-66
2021/01/28 07:25:30;;;;;;;41.03;14.60;;;;;;;;;;4960268;28;20047;-66
2021/01/28 07:28:15;;;;;;;42.47;14.68;;;;;;;;;;4972502;28;20043;-66
2021/01/28 07:31:09;;;;;;;48.30;16.13;;;;;;;;;;4972745;28;20043;-66
2021/01/28 07:34:01;;;;;;;54.90;17.83;;;;;;;;;;4992019;28;20070;-66
2021/01/28 07:37:25;;;;;;;77.93;19.00;;;;;;;;;;5002717;28;20532;-66
2021/01/28 07:40:29;;;;;;;;;;;;;;;;;;4975274;28;20042;-66
2021/01/28 07:43:41;;;;;;;100.97;21.33;;;;;;;;;;4958617;28;19921;-66
2021/01/28 07:47:00;;;;;;;121.30;21.60;;;;;;;;;;4984870;28;20054;-66
2021/01/28 07:50:29;;;;;;;130.48;23.33;;;;;;;;;;4994594;28;20042;-66
2021/01/28 07:53:33;;;;;;;114.57;19.90;;;;;;;;;;4934451;29;20051;-64
2021/01/28 07:56:36;;;;;;;94.60;21.30;;;;;;;;;;4995034;28;20038;-65
2021/01/28 07:59:25;;;;;;;103.03;20.92;;;;;;;;;;4995166;28;20489;-64
2021/01/28 08:02:29;;;;;;;89.18;20.38;;;;;;;;;;4964468;28;20513;-65
2021/01/28 08:05:20;;;;;;;91.95;21.27;;;;;;;;;;4964715;28;20051;-64
2021/01/28 08:08:07;;;;;;;63.83;18.60;;;;;;;;;;4966465;28;20417;-65
2021/01/28 08:10:52;;;;;;;54.85;17.70;;;;;;;;;;4974265;28;20168;-66
2021/01/28 08:13:37;;;;;;;39.25;15.48;;;;;;;;;;4994717;28;20042;-66
2021/01/28 08:16:23;;;;;;;46.38;15.73;;;;;;;;;;4994840;28;20058;-65
2021/01/28 08:19:14;;;;;;;44.25;15.13;;;;;;;;;;4993995;28;20075;-65
2021/01/28 08:22:05;;;;;;;41.33;15.95;;;;;;;;;;4983463;28;20039;-64
2021/01/28 08:24:53;;;;;;;39.00;15.95;;;;;;;;;;4975366;28;20409;-64
2021/01/28 08:27:39;;;;;;;49.17;16.25;;;;;;;;;;4975127;28;20101;-65
2021/01/28 08:30:26;;;;;;;48.30;17.35;;;;;;;;;;4975236;28;20043;-64
2021/01/28 08:33:13;;;;;;;47.42;16.45;;;;;;;;;;4992069;28;20054;-65
2021/01/28 08:36:00;;;;;;;50.65;16.40;;;;;;;;;;4993410;28;20481;-65
2021/01/28 08:38:45;;;;;;;44.97;16.33;;;;;;;;;;4993599;28;20042;-65
2021/01/28 08:41:31;;;;;;;43.03;15.68;;;;;;;;;;4992415;28;20053;-64
2021/01/28 08:44:16;;;;;;;40.47;16.45;;;;;;;;;;4974717;28;20035;-65
2021/01/28 08:47:15;;;;;;;47.50;15.95;;;;;;;;;;4973786;28;20047;-64
2021/01/28 08:50:01;;;;;;;39.30;15.70;;;;;;;;;;4974490;28;20046;-65
2021/01/28 08:52:47;;;;;;;29.27;14.13;;;;;;;;;;4983435;28;20050;-65
2021/01/28 08:55:34;;;;;;;30.33;13.75;;;;;;;;;;4970000;28;20086;-65
2021/01/28 08:58:20;;;;;;;31.13;13.23;;;;;;;;;;4973646;28;20126;-65
2021/01/28 09:01:06;;;;;;;29.00;13.48;;;;;;;;;;4973384;28;20078;-64
2021/01/28 09:03:52;;;;;;;33.15;13.98;;;;;;;;;;4988260;28;20042;-65
2021/01/28 09:06:39;;;;;;;26.98;12.90;;;;;;;;;;4992947;28;20051;-65
2021/01/28 09:09:28;;;;;;;26.42;12.38;;;;;;;;;;4992391;28;20513;-66
2021/01/28 09:12:18;;;;;;;23.17;11.20;;;;;;;;;;4991592;28;20516;-66
2021/01/28 09:15:15;;;;;;;24.65;10.80;;;;;;;;;;4973228;28;20417;-66
2021/01/28 09:18:06;;;;;;;21.20;10.18;;;;;;;;;;4973675;28;20043;-66
2021/01/28 09:20:51;;;;;;;23.15;10.40;;;;;;;;;;4972983;28;20129;-66
2021/01/28 09:23:37;;;;;;;17.33;9.45;;;;;;;;;;4966645;28;20046;-66
2021/01/28 09:26:23;;;;;;;19.15;9.95;;;;;;;;;;4992401;28;20046;-66
2021/01/28 09:29:10;;;;;;;16.67;9.32;;;;;;;;;;4992384;28;20098;-66
2021/01/28 09:32:04;;;;;;;16.55;9.20;;;;;;;;;;4993011;28;20149;-66
2021/01/28 09:35:05;;;;;;;16.00;8.93;;;;;;;;;;4978527;28;20046;-66
2021/01/28 09:38:09;;;;;;;18.23;10.25;;;;;;;;;;4973766;28;20046;-66
2021/01/28 09:41:07;;;;;;;21.55;11.45;;;;;;;;;;4973698;28;20121;-66
2021/01/28 09:43:52;;;;;;;18.15;9.50;;;;;;;;;;4975803;28;20047;-66
2021/01/28 09:46:38;;;;;;;21.05;10.23;;;;;;;;;;4993325;28;20102;-65
2021/01/28 09:49:23;;;;;;;17.05;10.32;;;;;;;;;;4984330;28;20133;-65
2021/01/28 09:52:16;;;;;;;19.10;11.10;;;;;;;;;;4964693;28;20274;-66
2021/01/28 09:55:02;;;;;;;19.70;10.35;;;;;;;;;;4975369;28;20034;-66
2021/01/28 09:57:48;;;;;;;17.60;9.57;;;;;;;;;;4972084;28;20039;-67
2021/01/28 10:00:33;;;;;;;17.90;10.20;;;;;;;;;;4967174;28;20058;-66
2021/01/28 10:03:18;;;;;;;18.65;11.45;;;;;;;;;;4954630;28;20134;-66
2021/01/28 10:06:03;;;;;;;16.83;9.23;;;;;;;;;;4987464;28;20050;-66
2021/01/28 10:08:49;;;;;;;12.07;8.25;;;;;;;;;;4997794;28;20118;-67
2021/01/28 10:11:35;;;;;;;12.38;8.15;;;;;;;;;;4975249;28;20053;-65
2021/01/28 10:14:20;;;;;;;12.90;8.63;;;;;;;;;;4972222;28;20078;-65
2021/01/28 10:17:05;;;;;;;16.65;9.15;;;;;;;;;;4953865;29;20039;-65
2021/01/28 10:19:50;;;;;;;13.63;7.97;;;;;;;;;;4953995;29;20137;-65
2021/01/28 10:22:36;;;;;;;11.25;7.50;;;;;;;;;;4953976;29;20047;-66
2021/01/28 10:25:22;;;;;;;10.15;7.30;;;;;;;;;;4960149;28;20038;-65
2021/01/28 10:28:07;;;;;;;12.98;7.85;;;;;;;;;;4992479;28;20050;-65
2021/01/28 10:30:53;;;;;;;12.23;6.95;;;;;;;;;;4992455;28;20448;-66
2021/01/28 10:33:39;;;;;;;11.73;7.50;;;;;;;;;;4991433;28;20035;-66
2021/01/28 10:36:24;;;;;;;13.63;7.78;;;;;;;;;;4981700;28;20608;-65
2021/01/28 10:39:09;;;;;;;10.75;7.40;;;;;;;;;;4973137;28;20413;-65
2021/01/28 10:41:55;;;;;;;14.93;8.75;;;;;;;;;;4972897;28;20043;-66
2021/01/28 10:44:40;;;;;;;14.18;8.38;;;;;;;;;;4981293;28;20658;-66
2021/01/28 10:47:26;;;;;;;14.18;9.05;;;;;;;;;;4998964;28;20512;-66
2021/01/28 10:50:11;;;;;;;14.23;8.65;;;;;;;;;;5001836;28;20089;-66
2021/01/28 10:52:57;;;;;;;12.45;7.95;;;;;;;;;;4995169;28;20043;-66
2021/01/28 10:55:42;;;;;;;10.05;7.55;;;;;;;;;;4990780;28;20063;-66
2021/01/28 10:58:27;;;;;;;11.45;7.88;;;;;;;;;;4992994;28;20039;-66
2021/01/28 11:01:13;;;;;;;13.65;8.00;;;;;;;;;;4978896;28;20043;-67
2021/01/28 11:03:58;;;;;;;12.10;8.32;;;;;;;;;;4968016;28;20046;-65
2021/01/28 11:06:44;;;;;;;12.75;8.20;;;;;;;;;;4972906;28;20051;-65
2021/01/28 11:09:29;;;;;;;13.57;8.05;;;;;;;;;;4971160;28;20042;-65
2021/01/28 11:12:14;;;;;;;12.10;8.18;;;;;;;;;;4972666;28;20039;-64
2021/01/28 11:15:00;;;;;;;12.27;6.70;;;;;;;;;;4976585;28;20062;-64
2021/01/28 11:17:45;;;;;;;12.45;8.07;;;;;;;;;;4983878;28;20050;-63
2021/01/28 11:20:31;;;;;;;10.15;7.40;;;;;;;;;;4996076;28;20089;-65
2021/01/28 11:23:16;;;;;;;9.07;5.53;;;;;;;;;;4987272;28;20055;-64
2021/01/28 11:26:02;;;;;;;9.98;6.05;;;;;;;;;;4974342;28;20046;-64
2021/01/28 11:28:47;;;;;;;6.40;3.08;;;;;;;;;;4988720;28;20120;-64
2021/01/28 11:31:35;;;;;;;7.30;3.20;;;;;;;;;;4995637;28;20108;-65
2021/01/28 11:34:20;;;;;;;6.32;2.78;;;;;;;;;;4995392;28;20505;-64
2021/01/28 11:37:06;;;;;;;5.50;2.40;;;;;;;;;;4992311;28;20159;-64
2021/01/28 11:39:51;;;;;;;4.32;2.22;;;;;;;;;;4968640;28;20043;-64
2021/01/28 11:42:37;;;;;;;6.93;3.28;;;;;;;;;;4965026;28;20044;-65
2021/01/28 11:45:23;;;;;;;4.45;2.88;;;;;;;;;;4964461;28;20050;-64
2021/01/28 11:48:08;;;;;;;4.57;2.70;;;;;;;;;;4966271;28;20044;-64
2021/01/28 11:50:53;;;;;;;4.53;2.60;;;;;;;;;;4974972;28;20058;-65
2021/01/28 11:53:39;;;;;;;5.97;3.33;;;;;;;;;;4975992;28;20138;-65
2021/01/28 11:56:24;;;;;;;5.65;3.90;;;;;;;;;;4975710;28;20051;-65
2021/01/28 11:59:09;;;;;;;7.60;3.80;;;;;;;;;;4985984;28;20066;-66
2021/01/28 12:01:55;;;;;;;7.15;3.30;;;;;;;;;;4996265;28;20150;-65
2021/01/28 12:04:40;;;;;;;6.35;3.85;;;;;;;;;;4995139;28;20046;-67
2021/01/28 12:07:25;;;;;;;6.22;3.20;;;;;;;;;;4994810;28;20501;-65
2021/01/28 12:10:12;;;;;;;5.57;4.10;;;;;;;;;;4982181;28;20046;-65
2021/01/28 12:12:57;;;;;;;5.55;4.00;;;;;;;;;;4975516;28;20074;-65
2021/01/28 12:15:42;;;;;;;5.93;3.80;;;;;;;;;;4975323;28;20051;-65
2021/01/28 12:18:27;;;;;;;5.68;4.10;;;;;;;;;;4975350;28;20090;-65
2021/01/28 12:21:12;;;;;;;4.93;3.95;;;;;;;;;;4977651;28;20065;-64
2021/01/28 12:23:58;;;;;;;6.53;4.47;;;;;;;;;;4994923;28;20090;-66
2021/01/28 12:26:43;;;;;;;8.75;4.95;;;;;;;;;;4987174;28;20057;-65
2021/01/28 12:29:28;;;;;;;6.95;4.72;;;;;;;;;;4983378;28;20109;-65
2021/01/28 12:32:14;;;;;;;7.95;4.40;;;;;;;;;;4990547;28;20058;-65
2021/01/28 12:34:59;;;;;;;7.20;4.43;;;;;;;;;;4983924;28;20126;-65
2021/01/28 12:37:45;;;;;;;5.18;4.03;;;;;;;;;;4978617;28;20054;-64
2021/01/28 12:40:30;;;;;;;4.85;3.85;;;;;;;;;;4970161;28;20038;-64
2021/01/28 12:43:15;;;;;;;5.13;4.00;;;;;;;;;;4982794;28;20501;-64
2021/01/28 12:46:01;;;;;;;5.32;4.20;;;;;;;;;;5007624;23;20050;-64
2021/01/28 12:48:46;;;;;;;6.45;4.30;;;;;;;;;;5006190;28;20129;-64
2021/01/28 12:51:32;;;;;;;5.85;4.25;;;;;;;;;;4993527;28;20057;-62
2021/01/28 12:54:17;;;;;;;5.22;3.83;;;;;;;;;;4981305;28;20667;-62
2021/01/28 18:57:33;;;;;;;10.40;7.03;;;;;;;;;;5148775;27;20388;-66
2021/01/28 19:00:22;;;;;;;10.25;7.32;;;;;;;;;;5145978;27;20416;-65
2021/01/28 19:03:08;;;;;;;9.65;7.35;;;;;;;;;;5149823;27;20039;-66
2021/01/28 19:05:54;;;;;;;11.00;7.18;;;;;;;;;;5131430;27;20421;-66
2021/01/28 19:08:39;;;;;;;12.27;7.85;;;;;;;;;;5128304;28;20046;-65
2021/01/28 19:11:25;;;;;;;10.25;7.53;;;;;;;;;;5127728;27;20125;-65
2021/01/28 19:14:10;;;;;;;11.45;8.23;;;;;;;;;;5127155;27;20423;-64
2021/01/28 19:16:56;;;;;;;12.82;8.55;;;;;;;;;;5117604;27;20512;-66
2021/01/28 19:19:42;;;;;;;11.07;8.07;;;;;;;;;;5113875;28;20042;-65
2021/01/28 19:22:27;;;;;;;9.15;7.03;;;;;;;;;;5119752;28;20062;-65
2021/01/28 19:25:13;;;;;;;9.48;7.95;;;;;;;;;;5117847;27;20092;-65
2021/01/28 19:27:59;;;;;;;10.43;8.15;;;;;;;;;;5117921;28;20047;-66
2021/01/28 19:30:44;;;;;;;11.90;8.00;;;;;;;;;;5117600;27;20044;-67
2021/01/28 19:33:32;;;;;;;9.02;6.97;;;;;;;;;;5120546;27;20419;-66
2021/01/28 19:36:17;;;;;;;11.07;8.10;;;;;;;;;;5116776;27;20494;-65
2021/01/28 19:39:03;;;;;;;10.07;7.53;;;;;;;;;;5115451;28;20112;-65
2021/01/28 19:41:49;;;;;;;14.23;9.13;;;;;;;;;;5122925;27;20047;-65
2021/01/28 19:44:34;;;;;;;12.85;9.45;;;;;;;;;;5120067;27;20123;-65
2021/01/28 19:47:19;;;;;;;11.68;8.38;;;;;;;;;;5116802;27;20050;-65
2021/01/28 19:50:05;;;;;;;15.00;8.13;;;;;;;;;;5115990;27;20047;-65
2021/01/28 19:52:50;;;;;;;9.52;7.90;;;;;;;;;;5116813;27;20036;-65
2021/01/28 19:55:36;;;;;;;12.32;8.68;;;;;;;;;;5116661;22;20047;-64
2021/01/28 19:58:21;;;;;;;12.07;8.32;;;;;;;;;;5096494;28;20052;-64
2021/01/28 20:01:07;;;;;;;14.80;9.02;;;;;;;;;;5095758;28;20036;-64
2021/01/28 20:03:52;;;;;;;12.93;10.70;;;;;;;;;;5098457;28;20040;-64
2021/01/28 20:06:38;;;;;;;10.90;8.70;;;;;;;;;;5115992;27;20570;-64
2021/01/28 20:09:24;;;;;;;14.75;9.52;;;;;;;;;;5101170;28;20128;-64
2021/01/28 20:12:09;;;;;;;14.18;9.68;;;;;;;;;;5100952;28;20052;-64
2021/01/28 20:14:54;;;;;;;13.20;10.00;;;;;;;;;;5104617;28;20036;-64
2021/01/28 20:17:40;;;;;;;15.93;10.25;;;;;;;;;;5104990;27;20060;-64
2021/01/28 20:20:25;;;;;;;16.80;11.63;;;;;;;;;;5107744;28;20048;-64
2021/01/28 20:23:11;;;;;;;16.38;11.00;;;;;;;;;;5101738;28;20040;-64
2021/01/28 20:25:58;;;;;;;16.48;11.40;;;;;;;;;;5100780;28;20047;-64
2021/01/28 20:28:44;;;;;;;17.17;10.82;;;;;;;;;;5103269;28;20036;-64
2021/01/28 20:31:29;;;;;;;13.80;10.98;;;;;;;;;;5106036;28;20462;-64
2021/01/28 20:34:14;;;;;;;16.50;12.35;;;;;;;;;;5102680;28;20040;-64
2021/01/28 20:37:00;;;;;;;18.45;12.55;;;;;;;;;;5101027;28;20055;-64
2021/01/28 20:39:45;;;;;;;18.67;13.52;;;;;;;;;;5104522;28;20489;-64
2021/01/28 20:42:32;;;;;;;16.55;12.35;;;;;;;;;;5108657;28;20044;-64
2021/01/28 20:45:17;;;;;;;18.52;12.98;;;;;;;;;;5106981;28;20075;-64
2021/01/28 20:48:03;;;;;;;19.30;12.50;;;;;;;;;;5102787;28;20042;-64
2021/01/28 20:50:48;;;;;;;18.80;13.05;;;;;;;;;;5108338;28;20134;-64
2021/01/28 20:53:34;;;;;;;19.17;13.02;;;;;;;;;;5100833;28;20044;-64
2021/01/28 20:56:20;;;;;;;20.83;13.63;;;;;;;;;;5102533;28;20448;-64
2021/01/28 20:59:05;;;;;;;20.63;14.13;;;;;;;;;;5100377;28;20117;-64
2021/01/28 21:01:51;;;;;;;21.23;13.82;;;;;;;;;;5104910;28;20051;-64
2021/01/28 21:04:36;;;;;;;22.38;14.32;;;;;;;;;;5107560;28;20051;-64
2021/01/28 21:07:22;;;;;;;20.65;14.75;;;;;;;;;;5095278;28;20595;-65
2021/01/28 21:10:08;;;;;;;20.52;14.32;;;;;;;;;;5104118;28;20040;-65
2021/01/28 21:12:55;;;;;;;20.45;13.38;;;;;;;;;;5108935;28;20055;-65
2021/01/28 21:15:40;;;;;;;23.55;14.32;;;;;;;;;;5102249;28;20477;-65
2021/01/28 21:18:25;;;;;;;21.77;15.00;;;;;;;;;;5100218;28;20061;-65
2021/01/28 21:21:11;;;;;;;24.23;15.00;;;;;;;;;;5108503;28;20047;-65
2021/01/28 21:23:59;;;;;;;22.23;14.52;;;;;;;;;;5102365;28;20035;-65
2021/01/28 21:26:44;;;;;;;24.77;14.77;;;;;;;;;;5095271;28;20051;-64
2021/01/28 21:29:29;;;;;;;23.55;15.80;;;;;;;;;;5101255;28;20508;-64
2021/01/28 21:32:14;;;;;;;26.08;16.67;;;;;;;;;;5110273;28;20079;-64
2021/01/28 21:34:59;;;;;;;25.88;16.48;;;;;;;;;;5106986;28;20044;-64
2021/01/28 21:37:45;;;;;;;25.60;16.23;;;;;;;;;;5099544;28;20059;-64
2021/01/28 21:40:30;;;;;;;25.83;15.18;;;;;;;;;;5107649;28;20130;-65
2021/01/28 21:43:15;;;;;;;29.25;16.38;;;;;;;;;;5095630;28;20049;-64
2021/01/28 21:46:00;;;;;;;27.00;16.45;;;;;;;;;;5099773;28;20393;-65
2021/01/28 21:48:46;;;;;;;27.08;16.30;;;;;;;;;;5106721;28;20093;-64
2021/01/28 21:51:31;;;;;;;28.23;17.48;;;;;;;;;;5097448;27;20103;-64
2021/01/28 21:54:16;;;;;;;30.30;18.10;;;;;;;;;;5097802;28;20120;-64
2021/01/28 21:57:02;;;;;;;28.70;18.45;;;;;;;;;;5105966;28;20120;-64
2021/01/28 21:59:47;;;;;;;31.20;18.27;;;;;;;;;;5099707;28;20462;-64
2021/01/28 22:02:33;;;;;;;32.00;17.58;;;;;;;;;;5103519;28;20061;-64
2021/01/28 22:05:19;;;;;;;33.95;18.23;;;;;;;;;;5106047;28;20051;-64
2021/01/28 22:08:06;;;;;;;30.52;18.20;;;;;;;;;;5106885;28;20054;-65
2021/01/28 22:10:52;;;;;;;28.80;18.58;;;;;;;;;;5107563;28;20416;-65
2021/01/28 22:13:37;;;;;;;32.08;19.35;;;;;;;;;;5096759;28;20517;-64
2021/01/28 22:16:23;;;;;;;35.42;19.48;;;;;;;;;;5110051;28;20126;-65
2021/01/28 22:19:08;;;;;;;31.55;19.83;;;;;;;;;;5105189;28;20413;-65
2021/01/28 22:21:53;;;;;;;30.67;18.77;;;;;;;;;;5101056;28;20046;-64
2021/01/28 22:24:38;;;;;;;30.98;18.08;;;;;;;;;;5105897;28;20051;-64
2021/01/28 22:27:24;;;;;;;36.25;20.45;;;;;;;;;;5105254;28;20145;-64
2021/01/28 22:30:09;;;;;;;32.97;19.45;;;;;;;;;;5107145;28;20485;-64
2021/01/28 22:32:55;;;;;;;35.40;19.25;;;;;;;;;;5093684;28;20796;-64
2021/01/28 22:35:42;;;;;;;30.40;18.60;;;;;;;;;;5098194;28;20045;-64
2021/01/28 22:38:27;;;;;;;30.80;17.70;;;;;;;;;;5109080;28;20100;-64
2021/01/28 22:41:13;;;;;;;30.60;19.42;;;;;;;;;;5093454;28;20176;-65